Schwertner, Texas
Current Conditions -  °F | °C
As of 9:08 PM on Friday 19 Dec 2014 (Local Time) from KGRK Reporting Station
Haze Haze  
Wind Chill: 39°   Ceiling: 400
Heat Index: 45°   Visibility: 1mi
Dew Point: 45°   Wind: 10mph
Humidity: 100%   Direction: 350°N
Pressure: 30.19"   Gusts: NA
Location:  30.82°N, 97.51°W
Report Text: KGRK 200308Z AUTO 35009KT 1SM R33/P6000FT BR OVC004 07/07 A3019 RMK AO2
Loading
Personal Weather Stations






























Interactive Weather Map New forecast layout! Learn more

10-Day Weather Forecast

Advertisements
Track Severe Weather on mobile